createdAt,value
2019-04-21T00:01:35.707Z,15.90
2019-04-21T00:04:12.416Z,15.90
2019-04-21T00:06:48.036Z,15.90
2019-04-21T00:09:21.047Z,15.90
2019-04-21T00:11:47.203Z,15.90
2019-04-21T00:14:07.911Z,15.80
2019-04-21T00:16:32.146Z,15.80
2019-04-21T00:19:12.178Z,15.80
2019-04-21T00:21:40.516Z,15.80
2019-04-21T00:24:23.872Z,15.90
2019-04-21T00:27:05.593Z,15.80
2019-04-21T00:29:35.439Z,15.80
2019-04-21T00:31:56.350Z,15.80
2019-04-21T00:34:11.211Z,15.80
2019-04-21T00:36:47.105Z,15.70
2019-04-21T00:39:36.404Z,15.70
2019-04-21T00:41:59.622Z,15.70
2019-04-21T00:44:21.483Z,15.70
2019-04-21T00:47:00.611Z,15.60
2019-04-21T00:49:28.237Z,15.60
2019-04-21T00:52:29.789Z,15.60
2019-04-21T00:55:01.441Z,15.60
2019-04-21T00:57:21.962Z,15.50
2019-04-21T00:59:46.378Z,15.50
2019-04-21T01:02:12.408Z,15.50
2019-04-21T01:04:42.961Z,15.50
2019-04-21T01:07:14.214Z,15.50
2019-04-21T01:09:36.703Z,14.30
2019-04-21T01:12:08.369Z,15.50
2019-04-21T01:14:45.630Z,15.40
2019-04-21T01:17:14.622Z,15.40
2019-04-21T01:19:33.235Z,15.40
2019-04-21T01:21:44.243Z,15.40
2019-04-21T01:24:19.267Z,15.40
2019-04-21T01:26:52.523Z,15.30
2019-04-21T01:29:34.290Z,15.30
2019-04-21T01:32:05.127Z,15.10
2019-04-21T01:34:29.023Z,15.20
2019-04-21T01:36:55.708Z,15.20
2019-04-21T01:39:29.167Z,15.10
2019-04-21T01:42:00.058Z,15.10
2019-04-21T01:44:31.281Z,15.10
2019-04-21T01:46:49.043Z,15.00
2019-04-21T01:49:16.047Z,15.00
2019-04-21T01:52:05.585Z,15.00
2019-04-21T01:54:44.982Z,15.00
2019-04-21T01:57:15.636Z,14.90
2019-04-21T01:59:34.905Z,14.80
2019-04-21T02:02:14.176Z,14.90
2019-04-21T02:04:47.355Z,14.90
2019-04-21T02:07:14.835Z,14.90
2019-04-21T02:09:43.321Z,14.90
2019-04-21T02:12:13.381Z,14.90
2019-04-21T02:14:45.679Z,14.80
2019-04-21T02:17:09.952Z,14.80
2019-04-21T02:19:34.896Z,14.80
2019-04-21T02:22:00.871Z,14.80
2019-04-21T02:24:42.733Z,14.70
2019-04-21T02:27:07.634Z,14.60
2019-04-21T02:29:39.468Z,14.60
2019-04-21T02:32:08.928Z,14.50
2019-04-21T02:39:46.739Z,14.30
2019-04-21T02:42:02.073Z,14.20
2019-04-21T02:47:05.592Z,14.00
2019-04-21T02:52:16.529Z,14.10
2019-04-21T02:57:01.573Z,14.00
2019-04-21T02:59:33.746Z,14.00
2019-04-21T03:05:02.298Z,13.90
2019-04-21T03:07:52.695Z,13.90
2019-04-21T03:12:22.546Z,13.80
2019-04-21T03:15:12.148Z,13.70
2019-04-21T03:17:39.649Z,13.60
2019-04-21T03:20:00.369Z,13.60
2019-04-21T03:27:29.137Z,13.50
2019-04-21T03:29:57.099Z,13.50
2019-04-21T03:32:55.405Z,13.50
2019-04-21T03:35:14.841Z,13.40
2019-04-21T03:37:30.851Z,13.40
2019-04-21T03:47:14.642Z,13.20
2019-04-21T03:49:47.547Z,13.20
2019-04-21T03:52:11.411Z,13.10
2019-04-21T03:55:42.889Z,11.50
2019-04-21T03:58:05.531Z,12.80
2019-04-21T04:00:21.923Z,12.50
2019-04-21T04:03:28.132Z,12.30
2019-04-21T04:05:59.648Z,12.10
2019-04-21T04:08:31.511Z,12.00
2019-04-21T04:11:04.611Z,11.90
2019-04-21T04:13:26.535Z,11.80
2019-04-21T04:16:04.582Z,11.70
2019-04-21T04:18:31.299Z,11.70
2019-04-21T04:20:42.480Z,11.70
2019-04-21T04:25:42.389Z,11.60
2019-04-21T04:31:01.122Z,11.60
2019-04-21T04:33:07.967Z,11.50
2019-04-21T04:35:55.993Z,11.50
2019-04-21T04:38:12.908Z,11.40
2019-04-21T04:40:51.661Z,11.40
2019-04-21T04:43:19.294Z,11.40
2019-04-21T04:45:44.126Z,11.40
2019-04-21T04:48:11.873Z,11.40
2019-04-21T04:50:49.455Z,11.40
2019-04-21T04:53:34.981Z,11.50
2019-04-21T04:58:13.235Z,11.50
2019-04-21T05:03:01.408Z,11.40
2019-04-21T05:06:28.508Z,11.40
2019-04-21T05:08:52.453Z,11.40
2019-04-21T05:11:20.865Z,11.40
2019-04-21T05:13:43.413Z,11.50
2019-04-21T05:16:18.559Z,11.60
2019-04-21T05:18:43.867Z,11.70
2019-04-21T05:21:16.375Z,11.60
2019-04-21T05:25:51.239Z,11.70
2019-04-21T05:28:15.133Z,11.80
2019-04-21T05:31:13.036Z,11.90
2019-04-21T05:33:38.408Z,12.00
2019-04-21T05:36:23.914Z,12.00
2019-04-21T05:39:02.633Z,12.10
2019-04-21T05:41:20.638Z,12.20
2019-04-21T05:44:04.844Z,12.30
2019-04-21T05:46:32.041Z,12.40
2019-04-21T05:49:05.863Z,12.40
2019-04-21T05:51:31.774Z,12.60
2019-04-21T05:54:10.050Z,12.70
2019-04-21T05:56:32.354Z,12.80
2019-04-21T05:58:55.417Z,12.90
2019-04-21T06:01:33.100Z,13.00
2019-04-21T06:04:09.058Z,13.10
2019-04-21T06:06:35.487Z,13.30
2019-04-21T06:08:54.068Z,13.40
2019-04-21T06:11:28.461Z,13.80
2019-04-21T06:14:03.786Z,14.20
2019-04-21T06:16:43.895Z,14.60
2019-04-21T06:18:53.079Z,15.00
2019-04-21T06:21:16.326Z,15.30
2019-04-21T06:23:44.727Z,15.90
2019-04-21T06:26:46.297Z,16.30
2019-04-21T06:28:50.430Z,16.70
2019-04-21T06:31:45.088Z,16.80
2019-04-21T06:33:44.801Z,17.40
2019-04-21T06:41:32.726Z,19.50
2019-04-21T06:43:56.351Z,19.70
2019-04-21T06:46:30.832Z,20.00
2019-04-21T06:48:55.687Z,20.20
2019-04-21T06:51:24.042Z,20.40
2019-04-21T06:53:52.450Z,20.50
2019-04-21T06:56:23.589Z,20.80
2019-04-21T06:58:43.792Z,21.40
2019-04-21T07:01:15.758Z,21.80
2019-04-21T07:03:48.698Z,21.80
2019-04-21T07:06:13.124Z,22.00
2019-04-21T07:08:56.715Z,22.20
2019-04-21T07:11:10.972Z,23.10
2019-04-21T07:13:38.853Z,24.20
2019-04-21T07:16:13.612Z,25.00
2019-04-21T07:18:41.356Z,25.20
2019-04-21T07:21:07.937Z,25.90
2019-04-21T07:23:38.601Z,25.60
2019-04-21T07:26:02.963Z,25.80
2019-04-21T07:28:31.550Z,26.30
2019-04-21T07:31:12.979Z,26.30
2019-04-21T07:33:53.967Z,26.00
2019-04-21T07:36:06.465Z,26.00
2019-04-21T07:38:37.456Z,26.30
2019-04-21T07:40:58.720Z,26.80
2019-04-21T07:43:24.644Z,26.40
2019-04-21T07:45:55.456Z,26.00
2019-04-21T07:48:33.247Z,25.60
2019-04-21T07:51:14.010Z,25.90
2019-04-21T07:53:51.566Z,26.20
2019-04-21T07:55:55.111Z,26.40
2019-04-21T07:58:49.263Z,26.00
2019-04-21T08:01:12.417Z,26.00
2019-04-21T08:03:38.826Z,25.60
2019-04-21T08:06:08.882Z,25.60
2019-04-21T08:08:33.402Z,25.20
2019-04-21T08:11:04.219Z,25.80
2019-04-21T08:13:40.055Z,26.60
2019-04-21T08:15:58.098Z,26.30
2019-04-21T08:18:35.025Z,25.80
2019-04-21T08:20:54.961Z,25.40
2019-04-21T08:23:29.325Z,24.90
2019-04-21T08:26:12.158Z,25.00
2019-04-21T08:28:25.930Z,25.60
2019-04-21T08:30:56.409Z,26.00
2019-04-21T08:38:20.092Z,27.50
2019-04-21T08:40:51.089Z,28.30
2019-04-21T08:43:21.408Z,29.40
2019-04-21T08:45:46.931Z,29.50
2019-04-21T08:48:18.276Z,28.50
2019-04-21T08:50:46.197Z,28.10
2019-04-21T08:53:12.529Z,28.40
2019-04-21T08:56:18.428Z,28.40
2019-04-21T08:59:17.666Z,28.40
2019-04-21T09:01:53.349Z,27.90
2019-04-21T09:04:19.883Z,27.80
2019-04-21T09:09:16.768Z,27.70
2019-04-21T09:11:45.573Z,28.30
2019-04-21T09:14:13.145Z,28.80
2019-04-21T09:16:36.680Z,28.50
2019-04-21T09:19:05.788Z,28.90
2019-04-21T09:21:42.303Z,30.10
2019-04-21T09:24:11.453Z,30.60
2019-04-21T09:26:34.042Z,29.70
2019-04-21T09:28:58.395Z,29.60
2019-04-21T09:31:19.349Z,29.90
2019-04-21T09:33:49.000Z,30.40
2019-04-21T09:36:15.434Z,30.50
2019-04-21T09:38:43.586Z,29.90
2019-04-21T09:41:14.263Z,30.50
2019-04-21T09:43:45.325Z,30.50
2019-04-21T09:46:08.398Z,30.30
2019-04-21T09:48:46.617Z,30.50
2019-04-21T09:51:04.117Z,30.90
2019-04-21T09:53:35.146Z,31.50
2019-04-21T09:56:04.697Z,31.20
2019-04-21T09:58:34.741Z,31.30
2019-04-21T10:01:08.461Z,31.80
2019-04-21T10:03:26.387Z,31.80
2019-04-21T10:05:54.096Z,32.30
2019-04-21T10:08:21.370Z,32.90
2019-04-21T10:10:49.088Z,33.00
2019-04-21T10:13:17.115Z,32.30
2019-04-21T10:15:46.280Z,31.50
2019-04-21T10:18:17.415Z,32.30
2019-04-21T10:20:44.854Z,32.80
2019-04-21T10:23:11.824Z,32.90
2019-04-21T10:25:38.764Z,33.20
2019-04-21T10:28:05.594Z,32.80
2019-04-21T10:30:32.979Z,32.50
2019-04-21T10:33:00.701Z,33.00
2019-04-21T10:35:28.863Z,32.60
2019-04-21T10:38:10.395Z,32.20
2019-04-21T10:40:27.491Z,33.40
2019-04-21T10:42:56.258Z,33.00
2019-04-21T10:45:23.435Z,32.40
2019-04-21T10:47:50.261Z,31.40
2019-04-21T10:50:18.375Z,30.90
2019-04-21T10:53:01.254Z,31.10
2019-04-21T10:55:44.962Z,32.50
2019-04-21T10:58:24.574Z,33.80
2019-04-21T11:00:58.048Z,33.60
2019-04-21T11:03:33.219Z,33.30
2019-04-21T11:06:01.085Z,33.30
2019-04-21T11:08:34.101Z,34.10
2019-04-21T11:10:58.215Z,33.50
2019-04-21T11:13:26.364Z,33.20
2019-04-21T11:15:55.076Z,32.70
2019-04-21T11:18:22.240Z,32.90
2019-04-21T11:20:51.197Z,33.00
2019-04-21T11:23:21.013Z,33.10
2019-04-21T11:25:48.197Z,33.00
2019-04-21T11:28:16.715Z,34.00
2019-04-21T11:30:44.528Z,33.40
2019-04-21T11:33:13.060Z,33.10
2019-04-21T11:35:41.286Z,32.50
2019-04-21T11:38:18.088Z,33.20
2019-04-21T11:40:42.194Z,33.30
2019-04-21T11:43:11.474Z,33.60
2019-04-21T11:45:39.965Z,32.90
2019-04-21T11:48:14.438Z,31.80
2019-04-21T11:50:41.539Z,31.60
2019-04-21T11:53:08.562Z,31.30
2019-04-21T11:55:39.834Z,31.50
2019-04-21T11:58:05.632Z,32.70
2019-04-21T12:00:33.604Z,33.50
2019-04-21T12:03:01.612Z,33.20
2019-04-21T12:05:29.676Z,32.10
2019-04-21T12:07:58.508Z,32.30
2019-04-21T12:10:25.311Z,32.60
2019-04-21T12:12:53.123Z,32.10
2019-04-21T12:15:20.849Z,32.40
2019-04-21T12:17:48.051Z,32.50
2019-04-21T12:20:16.674Z,32.70
2019-04-21T12:22:45.235Z,32.50
2019-04-21T12:25:15.543Z,31.80
2019-04-21T12:27:43.859Z,31.70
2019-04-21T12:30:13.680Z,31.00
2019-04-21T12:32:51.922Z,31.20
2019-04-21T12:35:19.713Z,30.90
2019-04-21T12:37:46.956Z,30.60
2019-04-21T12:40:14.726Z,30.30
2019-04-21T12:42:42.417Z,30.10
2019-04-21T12:45:11.153Z,30.30
2019-04-21T12:47:37.995Z,30.20
2019-04-21T12:50:06.995Z,29.70
2019-04-21T12:52:33.977Z,29.30
2019-04-21T12:55:01.727Z,28.70
2019-04-21T12:57:31.419Z,28.00
2019-04-21T12:59:57.851Z,27.50
2019-04-21T13:02:25.408Z,27.10
2019-04-21T13:04:53.036Z,26.90
2019-04-21T13:07:21.625Z,26.40
2019-04-21T13:09:48.679Z,26.20
2019-04-21T13:12:15.726Z,26.00
2019-04-21T13:14:43.964Z,25.60
2019-04-21T13:17:11.264Z,25.70
2019-04-21T13:19:38.990Z,25.50
2019-04-21T13:22:06.111Z,25.50
2019-04-21T13:24:33.712Z,25.40
2019-04-21T13:27:03.965Z,25.40
2019-04-21T13:29:32.314Z,25.20
2019-04-21T13:32:01.195Z,25.10
2019-04-21T13:34:28.376Z,25.10
2019-04-21T13:36:55.651Z,25.00
2019-04-21T13:40:03.440Z,24.90
2019-04-21T13:42:16.613Z,24.90
2019-04-21T13:44:36.982Z,25.10
2019-04-21T13:47:04.902Z,25.10
2019-04-21T13:49:31.871Z,25.10
2019-04-21T13:51:58.770Z,25.00
2019-04-21T13:54:25.788Z,25.20
2019-04-21T13:56:54.254Z,25.30
2019-04-21T13:59:22.468Z,25.00
2019-04-21T14:01:49.732Z,25.20
2019-04-21T14:04:17.791Z,25.20
2019-04-21T14:06:45.017Z,25.20
2019-04-21T14:09:13.601Z,25.00
2019-04-21T14:11:41.251Z,25.00
2019-04-21T14:14:08.336Z,25.10
2019-04-21T14:16:36.105Z,25.10
2019-04-21T14:19:03.510Z,25.30
2019-04-21T14:21:31.411Z,25.20
2019-04-21T14:23:59.532Z,25.10
2019-04-21T14:26:26.885Z,25.20
2019-04-21T14:28:54.659Z,25.40
2019-04-21T14:31:22.192Z,25.40
2019-04-21T14:33:50.018Z,25.40
2019-04-21T14:36:16.972Z,25.40
2019-04-21T14:38:44.734Z,25.40
2019-04-21T14:41:12.446Z,25.50
2019-04-21T14:43:39.594Z,25.40
2019-04-21T14:46:26.945Z,25.60
2019-04-21T14:49:11.022Z,25.30
2019-04-21T14:51:43.441Z,25.30
2019-04-21T14:54:20.982Z,25.20
2019-04-21T14:56:49.258Z,25.20
2019-04-21T14:59:17.214Z,25.30
2019-04-21T15:01:44.225Z,25.20
2019-04-21T15:04:11.254Z,25.20
2019-04-21T15:06:39.249Z,25.30
2019-04-21T15:09:07.156Z,25.20
2019-04-21T15:11:34.171Z,25.20
2019-04-21T15:14:02.022Z,25.30
2019-04-21T15:16:29.104Z,25.30
2019-04-21T15:18:56.790Z,25.20
2019-04-21T15:21:23.835Z,25.20
2019-04-21T15:23:50.816Z,25.20
2019-04-21T15:26:18.045Z,25.20
2019-04-21T15:28:46.691Z,25.00
2019-04-21T15:31:20.441Z,25.00
2019-04-21T15:33:43.206Z,25.10
2019-04-21T15:36:11.262Z,25.00
2019-04-21T15:38:38.272Z,25.00
2019-04-21T15:41:10.121Z,25.10
2019-04-21T15:43:34.020Z,25.10
2019-04-21T15:46:00.765Z,25.00
2019-04-21T15:48:28.942Z,24.90
2019-04-21T15:50:56.788Z,24.90
2019-04-21T15:53:25.673Z,24.90
2019-04-21T15:56:09.051Z,24.90
2019-04-21T15:59:01.521Z,24.90
2019-04-21T16:01:54.630Z,24.90
2019-04-21T16:04:23.037Z,24.90
2019-04-21T16:06:50.028Z,24.80
2019-04-21T16:09:21.419Z,24.80
2019-04-21T16:11:46.097Z,24.70
2019-04-21T16:14:14.535Z,24.70
2019-04-21T16:16:43.180Z,24.70
2019-04-21T16:19:10.336Z,24.80
2019-04-21T16:21:41.014Z,24.70
2019-04-21T16:24:06.772Z,24.80
2019-04-21T16:26:34.966Z,24.70
2019-04-21T16:29:02.918Z,24.60
2019-04-21T16:31:30.161Z,24.60
2019-04-21T16:33:58.757Z,24.60
2019-04-21T16:36:25.915Z,24.60
2019-04-21T16:38:53.595Z,24.60
2019-04-21T16:41:20.527Z,24.50
2019-04-21T16:43:47.264Z,24.40
2019-04-21T16:46:14.087Z,24.50
2019-04-21T16:48:42.006Z,24.40
2019-04-21T16:51:09.903Z,24.30
2019-04-21T16:53:41.911Z,24.30
2019-04-21T16:56:25.097Z,24.20
2019-04-21T16:58:56.741Z,24.20
2019-04-21T17:01:29.339Z,24.20
2019-04-21T17:03:55.523Z,23.90
2019-04-21T17:06:22.905Z,24.00
2019-04-21T17:08:50.604Z,23.80
2019-04-21T17:11:23.799Z,23.90
2019-04-21T17:13:47.373Z,23.90
2019-04-21T17:16:42.208Z,23.80
2019-04-21T17:18:53.707Z,23.80
2019-04-21T17:21:13.257Z,23.60
2019-04-21T17:23:40.792Z,23.60
2019-04-21T17:26:08.895Z,23.40
2019-04-21T17:28:36.394Z,23.50
2019-04-21T17:31:04.695Z,23.40
2019-04-21T17:33:33.527Z,23.40
2019-04-21T17:36:00.823Z,23.40
2019-04-21T17:38:28.059Z,23.40
2019-04-21T17:40:56.013Z,24.60
2019-04-21T17:43:23.849Z,23.20
2019-04-21T17:45:51.075Z,23.10
2019-04-21T17:48:19.673Z,23.10
2019-04-21T17:51:11.669Z,23.00
2019-04-21T17:53:55.133Z,22.90
2019-04-21T17:56:50.789Z,22.70
2019-04-21T17:59:10.043Z,22.70
2019-04-21T18:01:42.028Z,22.60
2019-04-21T18:04:11.839Z,22.60
2019-04-21T18:06:46.561Z,22.40
2019-04-21T18:09:22.352Z,22.40
2019-04-21T18:11:46.759Z,22.20
2019-04-21T18:13:55.501Z,22.20
2019-04-21T18:16:31.613Z,22.10
2019-04-21T18:18:52.863Z,22.10
2019-04-21T18:21:26.997Z,21.90
2019-04-21T18:24:05.751Z,21.80
2019-04-21T18:26:39.457Z,21.70
2019-04-21T18:28:57.169Z,21.60
2019-04-21T18:31:26.930Z,21.60
2019-04-21T18:34:06.125Z,21.50
2019-04-21T18:36:38.347Z,21.40
2019-04-21T18:39:38.152Z,21.30
2019-04-21T18:42:26.515Z,21.10
2019-04-21T18:47:59.492Z,20.70
2019-04-21T18:50:48.849Z,20.50
2019-04-21T18:53:31.425Z,20.20
2019-04-21T18:55:47.090Z,20.10
2019-04-21T18:58:13.693Z,20.00
2019-04-21T19:00:45.344Z,19.10
2019-04-21T19:03:12.304Z,19.50
2019-04-21T19:05:46.904Z,19.60
2019-04-21T19:08:26.365Z,19.60
2019-04-21T19:11:03.929Z,19.40
2019-04-21T19:13:41.951Z,19.40
2019-04-21T19:16:15.231Z,19.30
2019-04-21T19:20:53.782Z,19.10
2019-04-21T19:23:33.851Z,19.00
2019-04-21T19:25:55.516Z,19.00
2019-04-21T19:28:16.929Z,18.90
2019-04-21T19:33:15.988Z,18.80
2019-04-21T19:35:29.676Z,18.70
2019-04-21T19:38:04.190Z,18.70
2019-04-21T19:40:40.459Z,18.70
2019-04-21T19:43:03.591Z,18.60
2019-04-21T19:45:39.687Z,18.50
2019-04-21T19:48:13.541Z,18.50
2019-04-21T19:50:43.453Z,18.40
2019-04-21T19:53:03.091Z,18.40
2019-04-21T19:55:22.287Z,18.30
2019-04-21T19:57:49.436Z,18.30
2019-04-21T20:00:17.474Z,18.20
2019-04-21T20:02:46.548Z,18.20
2019-04-21T20:05:24.258Z,18.20
2019-04-21T20:08:03.659Z,18.10
2019-04-21T20:10:35.248Z,18.00
2019-04-21T20:13:03.164Z,18.00
2019-04-21T20:15:36.106Z,18.10
2019-04-21T20:17:54.002Z,18.00
2019-04-21T20:20:09.267Z,17.90
2019-04-21T20:22:40.414Z,17.90
2019-04-21T20:25:11.599Z,17.80
2019-04-21T20:27:45.509Z,17.70
2019-04-21T20:30:21.633Z,17.60
2019-04-21T20:32:48.922Z,17.60
2019-04-21T20:35:26.592Z,17.60
2019-04-21T20:37:50.122Z,17.50
2019-04-21T20:40:04.446Z,17.40
2019-04-21T20:42:44.069Z,17.30
2019-04-21T20:45:29.712Z,17.20
2019-04-21T20:47:35.213Z,17.20
2019-04-21T20:50:11.377Z,17.10
2019-04-21T20:52:41.880Z,17.10
2019-04-21T20:55:07.693Z,17.00
2019-04-21T20:57:35.953Z,17.00
2019-04-21T21:00:05.759Z,17.00
2019-04-21T21:02:37.240Z,17.00
2019-04-21T21:04:54.999Z,16.90
2019-04-21T21:10:07.273Z,16.90
2019-04-21T21:12:41.724Z,16.80
2019-04-21T21:14:55.550Z,16.70
2019-04-21T21:17:39.258Z,16.60
2019-04-21T21:20:02.692Z,16.70
2019-04-21T21:22:16.772Z,16.70
2019-04-21T21:24:53.250Z,16.60
2019-04-21T21:27:20.568Z,16.50
2019-04-21T21:29:49.870Z,16.50
2019-04-21T21:32:20.651Z,16.50
2019-04-21T21:34:50.776Z,16.40
2019-04-21T21:37:26.843Z,16.30
2019-04-21T21:39:52.070Z,16.40
2019-04-21T21:42:02.794Z,16.30
2019-04-21T21:44:29.986Z,16.20
2019-04-21T21:47:06.412Z,16.20
2019-04-21T21:49:39.411Z,16.30
2019-04-21T21:52:04.474Z,16.20
2019-04-21T21:54:22.150Z,16.10
2019-04-21T21:56:50.325Z,16.10
2019-04-21T21:59:22.911Z,16.10
2019-04-21T22:01:51.891Z,16.70
2019-04-21T22:04:23.815Z,16.10
2019-04-21T22:06:53.270Z,16.10
2019-04-21T22:09:14.562Z,16.10
2019-04-21T22:11:42.206Z,16.00
2019-04-21T22:14:13.271Z,16.00
2019-04-21T22:16:47.383Z,16.00
2019-04-21T22:19:27.264Z,16.00
2019-04-21T22:21:53.274Z,17.00
2019-04-21T22:24:19.363Z,15.90
2019-04-21T22:26:34.786Z,15.90
2019-04-21T22:29:01.832Z,15.90
2019-04-21T22:31:33.693Z,15.90
2019-04-21T22:34:03.832Z,15.80
2019-04-21T22:36:38.022Z,15.80
2019-04-21T22:39:13.099Z,15.80
2019-04-21T22:41:32.092Z,15.80
2019-04-21T22:43:54.242Z,15.80
2019-04-21T22:46:22.356Z,15.80
2019-04-21T22:48:55.895Z,15.70
2019-04-21T22:51:25.310Z,15.70
2019-04-21T22:53:50.355Z,15.80
2019-04-21T22:56:23.831Z,15.80
2019-04-21T22:58:46.512Z,15.80
2019-04-21T23:01:17.063Z,15.80
2019-04-21T23:03:49.203Z,15.80
2019-04-21T23:06:19.264Z,15.80
2019-04-21T23:08:43.570Z,15.80
2019-04-21T23:11:12.278Z,15.80
2019-04-21T23:13:40.064Z,15.90
2019-04-21T23:16:08.461Z,15.90
2019-04-21T23:18:46.452Z,15.90
2019-04-21T23:21:17.376Z,16.00
2019-04-21T23:23:49.657Z,15.90
2019-04-21T23:26:23.677Z,15.90
2019-04-21T23:28:51.299Z,15.90
2019-04-21T23:31:20.804Z,15.90
2019-04-21T23:33:30.659Z,16.00
2019-04-21T23:36:02.743Z,16.00
2019-04-21T23:38:31.811Z,16.00
2019-04-21T23:40:58.677Z,15.90
2019-04-21T23:43:26.398Z,15.90
2019-04-21T23:45:52.115Z,15.90
2019-04-21T23:48:33.651Z,15.90
2019-04-21T23:50:55.036Z,15.80
2019-04-21T23:53:17.372Z,15.80
2019-04-21T23:55:45.329Z,15.80
2019-04-21T23:58:18.678Z,15.80
